sensor_id;sensor_type;location;lat;lon;timestamp;pressure;altitude;pressure_sealevel;temperature;humidity
32761;BME280;19126;47.472;7.850;2022-08-19T00:01:27;96333.56;;;17.68;6.06
32761;BME280;19126;47.472;7.850;2022-08-19T00:03:56;96331.28;;;17.72;6.30
32761;BME280;19126;47.472;7.850;2022-08-19T00:06:23;96320.66;;;17.72;5.59
32761;BME280;19126;47.472;7.850;2022-08-19T00:08:50;96332.66;;;17.75;5.96
32761;BME280;19126;47.472;7.850;2022-08-19T00:11:18;96334.97;;;17.71;5.23
32761;BME280;19126;47.472;7.850;2022-08-19T00:13:46;96327.81;;;17.71;5.58
32761;BME280;19126;47.472;7.850;2022-08-19T00:16:14;96330.13;;;17.68;5.04
32761;BME280;19126;47.472;7.850;2022-08-19T00:18:43;96331.16;;;17.67;4.71
32761;BME280;19126;47.472;7.850;2022-08-19T00:21:10;96319.94;;;17.65;4.91
32761;BME280;19126;47.472;7.850;2022-08-19T00:23:37;96328.94;;;17.64;5.39
32761;BME280;19126;47.472;7.850;2022-08-19T00:26:05;96321.06;;;17.57;5.00
32761;BME280;19126;47.472;7.850;2022-08-19T00:28:33;96313.09;;;17.57;4.79
32761;BME280;19126;47.472;7.850;2022-08-19T00:31:02;96317.38;;;17.58;5.10
32761;BME280;19126;47.472;7.850;2022-08-19T00:33:30;96323.72;;;17.57;5.43
32761;BME280;19126;47.472;7.850;2022-08-19T00:35:59;96329.28;;;17.55;4.79
32761;BME280;19126;47.472;7.850;2022-08-19T00:38:27;96324.75;;;17.56;4.84
32761;BME280;19126;47.472;7.850;2022-08-19T00:40:54;96320.72;;;17.53;5.29
32761;BME280;19126;47.472;7.850;2022-08-19T00:43:24;96325.06;;;17.48;4.73
32761;BME280;19126;47.472;7.850;2022-08-19T00:45:52;96321.63;;;17.47;5.00
32761;BME280;19126;47.472;7.850;2022-08-19T00:48:20;96325.06;;;17.48;5.38
32761;BME280;19126;47.472;7.850;2022-08-19T00:50:49;96328.56;;;17.48;5.00
32761;BME280;19126;47.472;7.850;2022-08-19T00:53:24;96329.81;;;17.46;5.28
32761;BME280;19126;47.472;7.850;2022-08-19T00:55:56;96312.25;;;17.45;4.61
32761;BME280;19126;47.472;7.850;2022-08-19T00:58:31;96317.81;;;17.43;4.77
32761;BME280;19126;47.472;7.850;2022-08-19T01:00:59;96304.38;;;17.38;5.05
32761;BME280;19126;47.472;7.850;2022-08-19T01:03:27;96309.91;;;17.36;5.37
32761;BME280;19126;47.472;7.850;2022-08-19T01:05:55;96305.63;;;17.35;5.21
32761;BME280;19126;47.472;7.850;2022-08-19T01:08:24;96308.28;;;17.35;5.18
32761;BME280;19126;47.472;7.850;2022-08-19T01:10:54;96304.59;;;17.36;5.15
32761;BME280;19126;47.472;7.850;2022-08-19T01:13:25;96299.53;;;17.35;4.86
32761;BME280;19126;47.472;7.850;2022-08-19T01:15:57;96291.19;;;17.31;4.93
32761;BME280;19126;47.472;7.850;2022-08-19T01:18:27;96292.47;;;17.28;5.17
32761;BME280;19126;47.472;7.850;2022-08-19T01:21:00;96290.47;;;17.24;5.02
32761;BME280;19126;47.472;7.850;2022-08-19T01:23:30;96290.47;;;17.24;4.91
32761;BME280;19126;47.472;7.850;2022-08-19T01:26:12;96299.69;;;17.21;5.40
32761;BME280;19126;47.472;7.850;2022-08-19T01:28:41;96303.94;;;17.22;5.13
32761;BME280;19126;47.472;7.850;2022-08-19T01:31:12;96299.91;;;17.20;4.67
32761;BME280;19126;47.472;7.850;2022-08-19T01:33:39;96307.28;;;17.18;4.93
32761;BME280;19126;47.472;7.850;2022-08-19T01:36:10;96309.94;;;17.18;5.17
32761;BME280;19126;47.472;7.850;2022-08-19T01:38:42;96312.03;;;17.16;5.10
32761;BME280;19126;47.472;7.850;2022-08-19T01:41:11;96315.47;;;17.16;4.77
32761;BME280;19126;47.472;7.850;2022-08-19T01:43:39;96314.44;;;17.17;5.47
32761;BME280;19126;47.472;7.850;2022-08-19T01:46:07;96315.84;;;17.20;5.16
32761;BME280;19126;47.472;7.850;2022-08-19T01:48:36;96319.53;;;17.19;5.15
32761;BME280;19126;47.472;7.850;2022-08-19T01:51:05;96323.81;;;17.20;5.28
32761;BME280;19126;47.472;7.850;2022-08-19T01:53:33;96327.50;;;17.19;4.75
32761;BME280;19126;47.472;7.850;2022-08-19T01:56:03;96324.59;;;17.20;5.28
32761;BME280;19126;47.472;7.850;2022-08-19T01:58:36;96316.63;;;17.20;5.29
32761;BME280;19126;47.472;7.850;2022-08-19T02:01:06;96315.84;;;17.20;5.00
32761;BME280;19126;47.472;7.850;2022-08-19T02:03:33;96315.59;;;17.21;5.45
32761;BME280;19126;47.472;7.850;2022-08-19T02:06:02;96326.47;;;17.20;5.25
32761;BME280;19126;47.472;7.850;2022-08-19T02:08:33;96324.59;;;17.20;5.53
32761;BME280;19126;47.472;7.850;2022-08-19T02:11:03;96318.94;;;17.17;5.28
32761;BME280;19126;47.472;7.850;2022-08-19T02:13:31;96320.78;;;17.16;5.51
32761;BME280;19126;47.472;7.850;2022-08-19T02:15:58;96327.13;;;17.15;5.63
32761;BME280;19126;47.472;7.850;2022-08-19T02:18:25;96326.31;;;17.14;5.44
32761;BME280;19126;47.472;7.850;2022-08-19T02:20:53;96315.13;;;17.12;5.31
32761;BME280;19126;47.472;7.850;2022-08-19T02:23:20;96313.50;;;17.11;5.41
32761;BME280;19126;47.472;7.850;2022-08-19T02:25:48;96313.13;;;17.08;5.76
32761;BME280;19126;47.472;7.850;2022-08-19T02:28:17;96312.91;;;17.09;5.22
32761;BME280;19126;47.472;7.850;2022-08-19T02:30:45;96311.28;;;17.08;5.24
32761;BME280;19126;47.472;7.850;2022-08-19T02:33:13;96307.81;;;17.08;5.34
32761;BME280;19126;47.472;7.850;2022-08-19T02:35:42;96312.53;;;17.06;5.10
32761;BME280;19126;47.472;7.850;2022-08-19T02:38:09;96312.53;;;17.06;5.08
32761;BME280;19126;47.472;7.850;2022-08-19T02:40:57;96310.69;;;17.06;5.20
32761;BME280;19126;47.472;7.850;2022-08-19T02:43:28;96312.78;;;17.04;5.49
32761;BME280;19126;47.472;7.850;2022-08-19T02:45:55;96318.88;;;17.05;5.30
32761;BME280;19126;47.472;7.850;2022-08-19T02:48:24;96312.97;;;17.03;5.22
32761;BME280;19126;47.472;7.850;2022-08-19T02:50:53;96319.31;;;17.02;5.62
32761;BME280;19126;47.472;7.850;2022-08-19T02:53:22;96312.38;;;17.01;5.46
32761;BME280;19126;47.472;7.850;2022-08-19T02:55:51;96315.88;;;17.01;5.19
32761;BME280;19126;47.472;7.850;2022-08-19T02:58:19;96315.28;;;16.99;5.18
32761;BME280;19126;47.472;7.850;2022-08-19T03:00:52;96313.03;;;16.96;5.35
32761;BME280;19126;47.472;7.850;2022-08-19T03:03:20;96315.09;;;16.94;5.37
32761;BME280;19126;47.472;7.850;2022-08-19T03:05:47;96318.56;;;16.94;5.58
32761;BME280;19126;47.472;7.850;2022-08-19T03:08:15;96320.41;;;16.94;5.44
32761;BME280;19126;47.472;7.850;2022-08-19T03:10:44;96327.41;;;16.88;5.25
32761;BME280;19126;47.472;7.850;2022-08-19T03:13:14;96338.25;;;16.87;5.51
32761;BME280;19126;47.472;7.850;2022-08-19T03:15:43;96337.28;;;16.81;5.61
32761;BME280;19126;47.472;7.850;2022-08-19T03:18:13;96342.16;;;16.84;5.47
32761;BME280;19126;47.472;7.850;2022-08-19T03:20:42;96339.72;;;16.82;4.90
32761;BME280;19126;47.472;7.850;2022-08-19T03:23:10;96349.91;;;16.85;5.34
32761;BME280;19126;47.472;7.850;2022-08-19T03:25:39;96346.66;;;16.83;5.27
32761;BME280;19126;47.472;7.850;2022-08-19T03:28:10;96334.41;;;16.82;5.23
32761;BME280;19126;47.472;7.850;2022-08-19T03:30:37;96346.41;;;16.85;5.60
32761;BME280;19126;47.472;7.850;2022-08-19T03:33:06;96343.75;;;16.85;5.47
32761;BME280;19126;47.472;7.850;2022-08-19T03:35:35;96339.28;;;16.85;5.17
32761;BME280;19126;47.472;7.850;2022-08-19T03:38:03;96336.84;;;16.84;5.31
32761;BME280;19126;47.472;7.850;2022-08-19T03:40:30;96331.53;;;16.84;5.25
32761;BME280;19126;47.472;7.850;2022-08-19T03:42:57;96322.78;;;16.83;5.18
32761;BME280;19126;47.472;7.850;2022-08-19T03:45:24;96325.03;;;16.80;5.62
32761;BME280;19126;47.472;7.850;2022-08-19T03:47:53;96330.16;;;16.81;5.25
32761;BME280;19126;47.472;7.850;2022-08-19T03:50:20;96324.00;;;16.81;6.00
32761;BME280;19126;47.472;7.850;2022-08-19T03:52:50;96317.69;;;16.82;5.80
32761;BME280;19126;47.472;7.850;2022-08-19T03:55:18;96330.16;;;16.81;6.09
32761;BME280;19126;47.472;7.850;2022-08-19T03:57:46;96336.69;;;16.79;5.70
32761;BME280;19126;47.472;7.850;2022-08-19T04:00:15;96343.84;;;16.78;6.26
32761;BME280;19126;47.472;7.850;2022-08-19T04:02:43;96346.25;;;16.80;6.13
32761;BME280;19126;47.472;7.850;2022-08-19T04:05:10;96344.28;;;16.75;6.11
32761;BME280;19126;47.472;7.850;2022-08-19T04:07:39;96345.91;;;16.76;6.15
32761;BME280;19126;47.472;7.850;2022-08-19T04:10:09;96352.69;;;16.72;6.93
32761;BME280;19126;47.472;7.850;2022-08-19T04:12:36;96354.91;;;16.75;6.40
32761;BME280;19126;47.472;7.850;2022-08-19T04:15:04;96342.22;;;16.77;6.55
32761;BME280;19126;47.472;7.850;2022-08-19T04:17:31;96340.75;;;16.81;6.49
32761;BME280;19126;47.472;7.850;2022-08-19T04:19:59;96341.56;;;16.82;6.53
32761;BME280;19126;47.472;7.850;2022-08-19T04:22:27;96345.03;;;16.82;6.53
32761;BME280;19126;47.472;7.850;2022-08-19T04:24:54;96350.94;;;16.84;6.76
32761;BME280;19126;47.472;7.850;2022-08-19T04:27:22;96355.41;;;16.84;6.80
32761;BME280;19126;47.472;7.850;2022-08-19T04:29:49;96355.63;;;16.82;6.53
32761;BME280;19126;47.472;7.850;2022-08-19T04:32:18;96359.31;;;16.81;6.99
32761;BME280;19126;47.472;7.850;2022-08-19T04:34:45;96361.00;;;16.76;6.11
32761;BME280;19126;47.472;7.850;2022-08-19T04:37:12;96359.97;;;16.77;6.97
32761;BME280;19126;47.472;7.850;2022-08-19T04:39:39;96358.94;;;16.78;6.74
32761;BME280;19126;47.472;7.850;2022-08-19T04:42:26;96359.97;;;16.77;6.45
32761;BME280;19126;47.472;7.850;2022-08-19T04:45:07;96362.41;;;16.78;6.28
32761;BME280;19126;47.472;7.850;2022-08-19T04:47:36;96361.81;;;16.76;6.37
32761;BME280;19126;47.472;7.850;2022-08-19T04:50:04;96367.13;;;16.76;6.63
32761;BME280;19126;47.472;7.850;2022-08-19T04:52:32;96368.16;;;16.75;6.23
32761;BME280;19126;47.472;7.850;2022-08-19T04:54:59;96360.78;;;16.77;6.00
32761;BME280;19126;47.472;7.850;2022-08-19T04:57:27;96366.69;;;16.79;5.91
32761;BME280;19126;47.472;7.850;2022-08-19T04:59:55;96382.59;;;16.79;5.86
32761;BME280;19126;47.472;7.850;2022-08-19T05:02:23;96375.25;;;16.81;5.80
32761;BME280;19126;47.472;7.850;2022-08-19T05:04:51;96378.69;;;16.82;5.83
32761;BME280;19126;47.472;7.850;2022-08-19T05:07:18;96377.47;;;16.84;5.91
32761;BME280;19126;47.472;7.850;2022-08-19T05:09:45;96380.09;;;16.84;5.71
32761;BME280;19126;47.472;7.850;2022-08-19T05:12:12;96374.56;;;16.86;5.45
32761;BME280;19126;47.472;7.850;2022-08-19T05:14:41;96386.59;;;16.89;5.68
32761;BME280;19126;47.472;7.850;2022-08-19T05:17:08;96380.25;;;16.90;5.78
32761;BME280;19126;47.472;7.850;2022-08-19T05:19:35;96383.50;;;16.92;5.71
32761;BME280;19126;47.472;7.850;2022-08-19T05:22:20;96393.09;;;16.93;5.73
32761;BME280;19126;47.472;7.850;2022-08-19T05:25:07;96400.00;;;16.94;6.04
32761;BME280;19126;47.472;7.850;2022-08-19T05:27:35;96400.00;;;16.94;5.39
32761;BME280;19126;47.472;7.850;2022-08-19T05:30:05;96405.91;;;16.96;6.26
32761;BME280;19126;47.472;7.850;2022-08-19T05:32:33;96406.53;;;16.98;5.63
32761;BME280;19126;47.472;7.850;2022-08-19T05:35:00;96406.53;;;16.98;5.50
32761;BME280;19126;47.472;7.850;2022-08-19T05:37:28;96401.56;;;17.02;5.52
32761;BME280;19126;47.472;7.850;2022-08-19T05:39:55;96396.06;;;17.03;5.46
32761;BME280;19126;47.472;7.850;2022-08-19T05:42:23;96398.47;;;17.05;5.75
32761;BME280;19126;47.472;7.850;2022-08-19T05:44:52;96395.38;;;17.08;6.05
32761;BME280;19126;47.472;7.850;2022-08-19T05:47:20;96399.31;;;17.05;5.70
32761;BME280;19126;47.472;7.850;2022-08-19T05:49:48;96405.84;;;17.03;5.45
32761;BME280;19126;47.472;7.850;2022-08-19T05:52:17;96401.00;;;16.99;6.10
32761;BME280;19126;47.472;7.850;2022-08-19T05:54:45;96408.50;;;17.03;5.95
32761;BME280;19126;47.472;7.850;2022-08-19T05:57:14;96418.91;;;17.04;5.89
32761;BME280;19126;47.472;7.850;2022-08-19T05:59:41;96419.13;;;17.03;5.66
32761;BME280;19126;47.472;7.850;2022-08-19T06:02:09;96422.59;;;17.03;6.04
32761;BME280;19126;47.472;7.850;2022-08-19T06:04:38;96419.13;;;17.03;5.82
32761;BME280;19126;47.472;7.850;2022-08-19T06:07:08;96412.34;;;17.07;5.28
32761;BME280;19126;47.472;7.850;2022-08-19T06:09:35;96408.06;;;17.06;5.55
32761;BME280;19126;47.472;7.850;2022-08-19T06:12:03;96418.03;;;17.10;5.84
32761;BME280;19126;47.472;7.850;2022-08-19T06:14:33;96419.06;;;17.09;5.38
32761;BME280;19126;47.472;7.850;2022-08-19T06:17:01;96412.88;;;17.16;5.55
32761;BME280;19126;47.472;7.850;2022-08-19T06:19:30;96418.78;;;17.18;5.62
32761;BME280;19126;47.472;7.850;2022-08-19T06:21:59;96417.09;;;17.23;5.33
32761;BME280;19126;47.472;7.850;2022-08-19T06:24:29;96417.88;;;17.24;5.91
32761;BME280;19126;47.472;7.850;2022-08-19T06:26:59;96419.50;;;17.25;5.23
32761;BME280;19126;47.472;7.850;2022-08-19T06:29:29;96427.72;;;17.23;6.31
32761;BME280;19126;47.472;7.850;2022-08-19T06:31:59;96428.31;;;17.25;6.21
32761;BME280;19126;47.472;7.850;2022-08-19T06:34:30;96421.13;;;17.26;5.99
32761;BME280;19126;47.472;7.850;2022-08-19T06:37:00;96427.31;;;17.20;6.87
32761;BME280;19126;47.472;7.850;2022-08-19T06:39:32;96417.69;;;17.25;6.57
32761;BME280;19126;47.472;7.850;2022-08-19T06:42:02;96423.72;;;17.33;6.40
32761;BME280;19126;47.472;7.850;2022-08-19T06:44:34;96422.69;;;17.34;7.09
32761;BME280;19126;47.472;7.850;2022-08-19T06:47:05;96423.13;;;17.31;6.66
32761;BME280;19126;47.472;7.850;2022-08-19T06:49:34;96422.69;;;17.34;6.87
32761;BME280;19126;47.472;7.850;2022-08-19T06:52:04;96426.13;;;17.34;6.49
32761;BME280;19126;47.472;7.850;2022-08-19T06:54:31;96421.88;;;17.33;6.73
32761;BME280;19126;47.472;7.850;2022-08-19T06:57:00;96433.97;;;17.29;6.69
32761;BME280;19126;47.472;7.850;2022-08-19T06:59:30;96432.34;;;17.28;6.53
32761;BME280;19126;47.472;7.850;2022-08-19T07:02:00;96433.81;;;17.24;6.64
32761;BME280;19126;47.472;7.850;2022-08-19T07:04:30;96447.28;;;17.22;6.50
32761;BME280;19126;47.472;7.850;2022-08-19T07:06:59;96446.34;;;17.17;6.23
32761;BME280;19126;47.472;7.850;2022-08-19T07:09:28;96454.06;;;17.18;6.58
32761;BME280;19126;47.472;7.850;2022-08-19T07:11:55;96455.53;;;17.14;6.62
32761;BME280;19126;47.472;7.850;2022-08-19T07:14:25;96456.72;;;17.18;6.03
32761;BME280;19126;47.472;7.850;2022-08-19T07:16:55;96464.34;;;17.14;6.63
32761;BME280;19126;47.472;7.850;2022-08-19T07:19:25;96469.19;;;17.18;5.86
32761;BME280;19126;47.472;7.850;2022-08-19T07:21:54;96463.31;;;17.16;6.05
32761;BME280;19126;47.472;7.850;2022-08-19T07:24:25;96455.53;;;17.14;6.14
32761;BME280;19126;47.472;7.850;2022-08-19T07:26:57;96459.38;;;17.18;6.36
32761;BME280;19126;47.472;7.850;2022-08-19T07:29:27;96463.47;;;17.21;6.12
32761;BME280;19126;47.472;7.850;2022-08-19T07:31:55;96462.63;;;17.20;6.11
32761;BME280;19126;47.472;7.850;2022-08-19T07:34:26;96470.81;;;17.19;6.05
32761;BME280;19126;47.472;7.850;2022-08-19T07:36:55;96473.25;;;17.20;5.85
32761;BME280;19126;47.472;7.850;2022-08-19T07:39:25;96467.78;;;17.15;5.91
32761;BME280;19126;47.472;7.850;2022-08-19T07:41:57;96466.31;;;17.19;6.16
32761;BME280;19126;47.472;7.850;2022-08-19T07:44:25;96478.34;;;17.22;5.69
32761;BME280;19126;47.472;7.850;2022-08-19T07:46:55;96473.44;;;17.25;5.68
32761;BME280;19126;47.472;7.850;2022-08-19T07:49:24;96478.88;;;17.31;5.82
32761;BME280;19126;47.472;7.850;2022-08-19T07:51:54;96476.22;;;17.31;6.34
32761;BME280;19126;47.472;7.850;2022-08-19T07:54:23;96475.56;;;17.35;6.10
32761;BME280;19126;47.472;7.850;2022-08-19T07:56:51;96477.91;;;17.43;6.17
32761;BME280;19126;47.472;7.850;2022-08-19T07:59:21;96489.94;;;17.46;5.74
32761;BME280;19126;47.472;7.850;2022-08-19T08:01:48;96484.41;;;17.48;5.51
32761;BME280;19126;47.472;7.850;2022-08-19T08:04:17;96483.53;;;17.54;5.92
32761;BME280;19126;47.472;7.850;2022-08-19T08:07:03;96487.34;;;17.58;6.17
32761;BME280;19126;47.472;7.850;2022-08-19T08:09:48;96485.88;;;17.62;6.19
32761;BME280;19126;47.472;7.850;2022-08-19T08:12:21;96489.72;;;17.66;6.01
32761;BME280;19126;47.472;7.850;2022-08-19T08:14:55;96492.97;;;17.68;6.11
32761;BME280;19126;47.472;7.850;2022-08-19T08:17:27;96493.91;;;17.74;6.17
32761;BME280;19126;47.472;7.850;2022-08-19T08:19:55;96497.63;;;17.73;6.29
32761;BME280;19126;47.472;7.850;2022-08-19T08:22:23;96493.09;;;17.73;6.63
32761;BME280;19126;47.472;7.850;2022-08-19T08:25:12;96500.72;;;17.70;6.83
32761;BME280;19126;47.472;7.850;2022-08-19T08:27:43;96495.09;;;17.78;6.67
32761;BME280;19126;47.472;7.850;2022-08-19T08:30:21;96504.16;;;17.89;6.60
32761;BME280;19126;47.472;7.850;2022-08-19T08:32:50;96492.00;;;18.00;6.58
32761;BME280;19126;47.472;7.850;2022-08-19T08:35:20;96495.59;;;18.06;6.91
32761;BME280;19126;47.472;7.850;2022-08-19T08:37:50;96508.34;;;18.15;8.00
32761;BME280;19126;47.472;7.850;2022-08-19T08:40:21;96500.25;;;18.22;7.89
32761;BME280;19126;47.472;7.850;2022-08-19T08:42:55;96509.28;;;18.21;8.75
32761;BME280;19126;47.472;7.850;2022-08-19T08:45:29;96513.38;;;18.36;11.61
32761;BME280;19126;47.472;7.850;2022-08-19T08:48:03;96513.75;;;18.51;12.69
32761;BME280;19126;47.472;7.850;2022-08-19T08:50:38;96515.28;;;18.59;14.46
32761;BME280;19126;47.472;7.850;2022-08-19T08:53:08;96519.44;;;18.55;18.91
32761;BME280;19126;47.472;7.850;2022-08-19T08:55:35;96520.28;;;18.55;21.81
32761;BME280;19126;47.472;7.850;2022-08-19T08:58:06;96524.69;;;18.62;23.23
32761;BME280;19126;47.472;7.850;2022-08-19T09:00:46;96531.50;;;18.57;29.93
32761;BME280;19126;47.472;7.850;2022-08-19T09:03:19;96543.03;;;18.51;33.76
32761;BME280;19126;47.472;7.850;2022-08-19T09:05:56;96537.69;;;18.51;33.07
32761;BME280;19126;47.472;7.850;2022-08-19T09:08:40;96543.19;;;18.56;33.79
32761;BME280;19126;47.472;7.850;2022-08-19T09:11:19;96544.56;;;18.59;36.19
32761;BME280;19126;47.472;7.850;2022-08-19T09:14:00;96555.53;;;18.51;42.44
32761;BME280;19126;47.472;7.850;2022-08-19T09:16:35;96556.91;;;18.53;45.53
32761;BME280;19126;47.472;7.850;2022-08-19T09:19:07;96548.03;;;18.59;44.58
32761;BME280;19126;47.472;7.850;2022-08-19T09:21:36;96558.22;;;18.63;48.71
32761;BME280;19126;47.472;7.850;2022-08-19T09:24:05;96553.50;;;18.65;46.94
32761;BME280;19126;47.472;7.850;2022-08-19T09:26:33;96563.56;;;18.63;43.44
32761;BME280;19126;47.472;7.850;2022-08-19T09:29:01;96567.00;;;18.63;41.62
32761;BME280;19126;47.472;7.850;2022-08-19T09:31:31;96568.63;;;18.64;40.09
32761;BME280;19126;47.472;7.850;2022-08-19T09:34:00;96575.81;;;18.64;39.26
32761;BME280;19126;47.472;7.850;2022-08-19T09:36:31;96580.19;;;18.58;40.75
32761;BME280;19126;47.472;7.850;2022-08-19T09:39:03;96577.59;;;18.51;44.33
32761;BME280;19126;47.472;7.850;2022-08-19T09:41:30;96572.28;;;18.51;48.47
32761;BME280;19126;47.472;7.850;2022-08-19T09:43:58;96577.44;;;18.65;48.46
32761;BME280;19126;47.472;7.850;2022-08-19T09:46:28;96582.66;;;18.71;47.45
32761;BME280;19126;47.472;7.850;2022-08-19T09:49:00;96581.75;;;18.78;48.42
32761;BME280;19126;47.472;7.850;2022-08-19T09:51:27;96583.16;;;18.92;44.86
32761;BME280;19126;47.472;7.850;2022-08-19T09:53:59;96578.56;;;18.99;41.73
32761;BME280;19126;47.472;7.850;2022-08-19T09:56:27;96585.06;;;19.03;41.18
32761;BME280;19126;47.472;7.850;2022-08-19T09:58:54;96590.19;;;19.05;41.95
32761;BME280;19126;47.472;7.850;2022-08-19T10:01:23;96583.34;;;19.09;41.48
32761;BME280;19126;47.472;7.850;2022-08-19T10:03:54;96581.31;;;18.93;45.75
32761;BME280;19126;47.472;7.850;2022-08-19T10:06:26;96588.19;;;19.00;46.09
32761;BME280;19126;47.472;7.850;2022-08-19T10:08:56;96587.19;;;19.13;44.00
32761;BME280;19126;47.472;7.850;2022-08-19T10:11:23;96586.81;;;19.10;43.04
32761;BME280;19126;47.472;7.850;2022-08-19T10:13:52;96589.59;;;19.15;44.29
32761;BME280;19126;47.472;7.850;2022-08-19T10:16:22;96584.63;;;19.18;43.50
32761;BME280;19126;47.472;7.850;2022-08-19T10:18:52;96591.00;;;19.29;47.92
32761;BME280;19126;47.472;7.850;2022-08-19T10:21:24;96592.16;;;19.33;47.35
32761;BME280;19126;47.472;7.850;2022-08-19T10:23:54;96586.72;;;19.40;51.42
32761;BME280;19126;47.472;7.850;2022-08-19T10:26:26;96591.34;;;19.45;53.80
32761;BME280;19126;47.472;7.850;2022-08-19T10:28:54;96594.47;;;19.42;59.48
32761;BME280;19126;47.472;7.850;2022-08-19T10:31:24;96594.59;;;19.35;62.61
32761;BME280;19126;47.472;7.850;2022-08-19T10:33:52;96596.56;;;19.28;69.28
32761;BME280;19126;47.472;7.850;2022-08-19T10:36:28;96587.41;;;19.36;69.98
32761;BME280;19126;47.472;7.850;2022-08-19T10:38:59;96583.13;;;19.35;75.09
32761;BME280;19126;47.472;7.850;2022-08-19T10:41:31;96590.75;;;19.43;74.12
32761;BME280;19126;47.472;7.850;2022-08-19T10:44:02;96584.84;;;19.41;74.03
32761;BME280;19126;47.472;7.850;2022-08-19T10:46:31;96583.13;;;19.35;73.03
32761;BME280;19126;47.472;7.850;2022-08-19T10:49:00;96589.41;;;19.40;69.75
32761;BME280;19126;47.472;7.850;2022-08-19T10:51:30;96584.50;;;19.25;72.11
32761;BME280;19126;47.472;7.850;2022-08-19T10:54:15;96582.09;;;19.24;73.35
32761;BME280;19126;47.472;7.850;2022-08-19T10:56:43;96582.31;;;19.22;71.22
32761;BME280;19126;47.472;7.850;2022-08-19T10:59:21;96589.38;;;19.28;66.77
32761;BME280;19126;47.472;7.850;2022-08-19T11:01:50;96589.75;;;19.32;62.71
32761;BME280;19126;47.472;7.850;2022-08-19T11:04:18;96587.19;;;19.37;59.11
32761;BME280;19126;47.472;7.850;2022-08-19T11:06:48;96588.81;;;19.38;59.20
32761;BME280;19126;47.472;7.850;2022-08-19T11:09:20;96597.59;;;19.39;60.18
32761;BME280;19126;47.472;7.850;2022-08-19T11:11:50;96593.06;;;19.27;60.71
32761;BME280;19126;47.472;7.850;2022-08-19T11:14:20;96595.16;;;19.13;59.88
32761;BME280;19126;47.472;7.850;2022-08-19T11:16:48;96595.59;;;18.98;63.65
32761;BME280;19126;47.472;7.850;2022-08-19T11:19:17;96598.34;;;18.92;63.05
32761;BME280;19126;47.472;7.850;2022-08-19T11:21:48;96596.22;;;18.82;61.74
32761;BME280;19126;47.472;7.850;2022-08-19T11:24:18;96593.22;;;18.78;57.03
32761;BME280;19126;47.472;7.850;2022-08-19T11:26:48;96598.22;;;18.86;51.06
32761;BME280;19126;47.472;7.850;2022-08-19T11:29:18;96609.03;;;19.03;43.03
32761;BME280;19126;47.472;7.850;2022-08-19T11:31:49;96599.78;;;19.18;44.91
32761;BME280;19126;47.472;7.850;2022-08-19T11:34:19;96605.00;;;19.37;43.94
32761;BME280;19126;47.472;7.850;2022-08-19T11:36:50;96612.78;;;19.62;48.51
32761;BME280;19126;47.472;7.850;2022-08-19T11:39:21;96606.63;;;19.73;59.88
32761;BME280;19126;47.472;7.850;2022-08-19T11:41:48;96603.97;;;19.73;67.23
32761;BME280;19126;47.472;7.850;2022-08-19T11:44:16;96603.63;;;19.70;75.33
32761;BME280;19126;47.472;7.850;2022-08-19T11:46:44;96602.34;;;19.72;77.55
32761;BME280;19126;47.472;7.850;2022-08-19T11:49:12;96609.31;;;19.73;78.28
32761;BME280;19126;47.472;7.850;2022-08-19T11:51:41;96619.50;;;19.76;76.29
32761;BME280;19126;47.472;7.850;2022-08-19T11:54:11;96612.22;;;19.60;79.53
32761;BME280;19126;47.472;7.850;2022-08-19T11:56:39;96610.47;;;19.54;76.24
32761;BME280;19126;47.472;7.850;2022-08-19T11:59:06;96619.38;;;19.47;75.33
32761;BME280;19126;47.472;7.850;2022-08-19T12:01:34;96616.59;;;19.54;71.78
32761;BME280;19126;47.472;7.850;2022-08-19T12:04:01;96620.31;;;19.53;65.42
32761;BME280;19126;47.472;7.850;2022-08-19T12:06:32;96615.22;;;19.52;67.73
32761;BME280;19126;47.472;7.850;2022-08-19T12:09:03;96624.84;;;19.53;66.47
32761;BME280;19126;47.472;7.850;2022-08-19T12:11:32;96627.50;;;19.53;67.14
32761;BME280;19126;47.472;7.850;2022-08-19T12:13:59;96625.75;;;19.58;64.59
32761;BME280;19126;47.472;7.850;2022-08-19T12:16:29;96614.28;;;19.46;68.63
32761;BME280;19126;47.472;7.850;2022-08-19T12:18:58;96622.63;;;19.50;66.16
32761;BME280;19126;47.472;7.850;2022-08-19T12:21:30;96623.69;;;19.48;64.05
32761;BME280;19126;47.472;7.850;2022-08-19T12:23:59;96620.66;;;19.45;64.47
32761;BME280;19126;47.472;7.850;2022-08-19T12:26:29;96613.13;;;19.42;67.09
32761;BME280;19126;47.472;7.850;2022-08-19T12:28:59;96622.06;;;19.47;66.87
32761;BME280;19126;47.472;7.850;2022-08-19T12:31:26;96615.56;;;19.43;65.84
32761;BME280;19126;47.472;7.850;2022-08-19T12:33:54;96624.13;;;19.33;73.13
32761;BME280;19126;47.472;7.850;2022-08-19T12:36:21;96625.63;;;19.29;77.49
32761;BME280;19126;47.472;7.850;2022-08-19T12:38:49;96625.50;;;19.24;77.07
32761;BME280;19126;47.472;7.850;2022-08-19T12:41:18;96625.63;;;19.17;77.94
32761;BME280;19126;47.472;7.850;2022-08-19T12:43:46;96616.34;;;19.20;75.28
32761;BME280;19126;47.472;7.850;2022-08-19T12:46:17;96627.25;;;19.18;72.06
32761;BME280;19126;47.472;7.850;2022-08-19T12:48:44;96623.28;;;19.21;70.23
32761;BME280;19126;47.472;7.850;2022-08-19T12:51:14;96623.28;;;19.09;73.95
32761;BME280;19126;47.472;7.850;2022-08-19T12:53:42;96634.72;;;19.10;75.39
32761;BME280;19126;47.472;7.850;2022-08-19T12:56:11;96636.59;;;19.09;73.37
32761;BME280;19126;47.472;7.850;2022-08-19T12:58:40;96630.31;;;19.03;73.37
32761;BME280;19126;47.472;7.850;2022-08-19T13:01:10;96627.44;;;19.05;73.59
32761;BME280;19126;47.472;7.850;2022-08-19T13:03:39;96628.25;;;19.06;71.50
32761;BME280;19126;47.472;7.850;2022-08-19T13:06:08;96622.34;;;19.03;69.90
32761;BME280;19126;47.472;7.850;2022-08-19T13:08:36;96614.59;;;19.02;70.83
32761;BME280;19126;47.472;7.850;2022-08-19T13:11:09;96626.88;;;19.03;70.72
32761;BME280;19126;47.472;7.850;2022-08-19T13:13:38;96615.38;;;19.02;69.30
32761;BME280;19126;47.472;7.850;2022-08-19T13:16:09;96613.44;;;18.98;65.33
32761;BME280;19126;47.472;7.850;2022-08-19T13:18:39;96612.69;;;18.91;63.91
32761;BME280;19126;47.472;7.850;2022-08-19T13:21:09;96619.72;;;18.85;67.69